North Solon, OH

11:53 PM EST on December 02, 2016 (GMT -0500)
Cleveland-Hopkins International | | Change Station

Elev 804 ft 41.40 °N, 81.85 °W | Updated 2 minutes ago

Overcast
Overcast
38 °F
Feels Like 30 °F
N
14
Wind Variable Wind from WNW

Today
High -- | Low -- °F
--% Chance of Precip.
Yesterday
High -- | Low -- °F
Precip. -- in
Pressure 30.28 in
Visibility 10.0 miles
Clouds Overcast 2300 ft
Windchill 30 °F
Dew Point 28 °F
Humidity 68%
Rainfall 0.09 in
Snow Depth Not available.
7:34 AM 4:56 PM
Waxing Crescent, 12% visible
METAR KCLE 030451Z 29012KT 10SM OVC023 03/M02 A3026 RMK AO2 SLP253 T00331022 400560011
Pressure 30.28 in
Visibility 10.0 miles
Clouds Overcast 2300 ft
Windchill 30 °F
Dew Point 28 °F
Humidity 68%
Rainfall 0.09 in
Snow Depth Not available.
7:34 AM 4:56 PM
Waxing Crescent, 12% visible
METAR KCLE 030451Z 29012KT 10SM OVC023 03/M02 A3026 RMK AO2 SLP253 T00331022 400560011

10-Day Weather Forecast

Almanac

Astronomy

Dec. 02, 2016 Rise Set
Actual Time
Civil Twilight
Nautical Twilight
Astronomical Twilight
Moon
Length of Visible Light
Length of Day
Tomorrow will be .
, % of the Moon is Illuminated

Today's Extremes

State Highs State Lows

Community

WunderPhotos

Upload Photos

1,955,411 photos uploaded!

WunderBlog® & News

Nearby

Air Quality

  Air Quality AQ Index Pollutant
Not available.

Snow Depth

Station Depth Elevation

Earthquake Activity

City Distance Mag. Time & Date
Minimum magnitude displayed is 2.5.

Coastal Water Temperatures

Place Temperature

Stations

Nearby Weather Stations

Station Location Temp. Windchill Dew Point Humidity Wind Precip. Elev Updated Type
                   

Watches & Warnings

There are currently no watches in effect.